sensor_id;sensor_type;location;lat;lon;timestamp;P1;durP1;ratioP1;P2;durP2;ratioP2
6027;SDS011;3042;43.194;27.646;2023-11-21T00:00:12;22.70;;;20.77;;
6027;SDS011;3042;43.194;27.646;2023-11-21T00:02:40;23.83;;;21.77;;
6027;SDS011;3042;43.194;27.646;2023-11-21T00:05:09;30.40;;;23.17;;
6027;SDS011;3042;43.194;27.646;2023-11-21T00:07:39;23.83;;;21.93;;
6027;SDS011;3042;43.194;27.646;2023-11-21T00:10:07;21.23;;;19.47;;
6027;SDS011;3042;43.194;27.646;2023-11-21T00:12:35;23.20;;;21.40;;
6027;SDS011;3042;43.194;27.646;2023-11-21T00:15:03;21.43;;;20.03;;
6027;SDS011;3042;43.194;27.646;2023-11-21T00:17:35;25.10;;;23.10;;
6027;SDS011;3042;43.194;27.646;2023-11-21T00:20:02;23.30;;;21.30;;
6027;SDS011;3042;43.194;27.646;2023-11-21T00:22:33;24.87;;;22.27;;
6027;SDS011;3042;43.194;27.646;2023-11-21T00:25:00;26.23;;;24.27;;
6027;SDS011;3042;43.194;27.646;2023-11-21T00:27:29;26.27;;;24.20;;
6027;SDS011;3042;43.194;27.646;2023-11-21T00:29:56;26.97;;;24.87;;
6027;SDS011;3042;43.194;27.646;2023-11-21T00:32:23;26.03;;;23.43;;
6027;SDS011;3042;43.194;27.646;2023-11-21T00:34:50;25.97;;;23.70;;
6027;SDS011;3042;43.194;27.646;2023-11-21T00:37:17;26.40;;;23.90;;
6027;SDS011;3042;43.194;27.646;2023-11-21T00:40:03;24.27;;;22.20;;
6027;SDS011;3042;43.194;27.646;2023-11-21T00:42:31;22.87;;;21.17;;
6027;SDS011;3042;43.194;27.646;2023-11-21T00:44:59;23.97;;;22.07;;
6027;SDS011;3042;43.194;27.646;2023-11-21T00:47:26;28.60;;;25.23;;
6027;SDS011;3042;43.194;27.646;2023-11-21T00:49:53;27.70;;;24.83;;
6027;SDS011;3042;43.194;27.646;2023-11-21T00:52:22;31.05;;;28.05;;
6027;SDS011;3042;43.194;27.646;2023-11-21T00:54:49;29.23;;;26.43;;
6027;SDS011;3042;43.194;27.646;2023-11-21T00:57:17;31.40;;;28.50;;
6027;SDS011;3042;43.194;27.646;2023-11-21T00:59:44;27.60;;;25.00;;
6027;SDS011;3042;43.194;27.646;2023-11-21T01:02:12;26.33;;;23.87;;
6027;SDS011;3042;43.194;27.646;2023-11-21T01:04:39;26.93;;;24.53;;
6027;SDS011;3042;43.194;27.646;2023-11-21T01:07:06;26.93;;;24.50;;
6027;SDS011;3042;43.194;27.646;2023-11-21T01:09:33;24.07;;;22.07;;
6027;SDS011;3042;43.194;27.646;2023-11-21T01:12:00;26.37;;;23.77;;
6027;SDS011;3042;43.194;27.646;2023-11-21T01:14:28;26.80;;;24.17;;
6027;SDS011;3042;43.194;27.646;2023-11-21T01:16:55;26.40;;;23.90;;
6027;SDS011;3042;43.194;27.646;2023-11-21T01:19:23;26.20;;;23.53;;
6027;SDS011;3042;43.194;27.646;2023-11-21T01:21:50;26.40;;;24.10;;
6027;SDS011;3042;43.194;27.646;2023-11-21T01:24:17;27.20;;;24.90;;
6027;SDS011;3042;43.194;27.646;2023-11-21T01:26:44;27.27;;;24.90;;
6027;SDS011;3042;43.194;27.646;2023-11-21T01:29:11;27.50;;;24.93;;
6027;SDS011;3042;43.194;27.646;2023-11-21T01:31:40;27.40;;;24.80;;
6027;SDS011;3042;43.194;27.646;2023-11-21T01:34:07;29.77;;;26.87;;
6027;SDS011;3042;43.194;27.646;2023-11-21T01:36:34;33.83;;;27.80;;
6027;SDS011;3042;43.194;27.646;2023-11-21T01:39:01;30.53;;;27.63;;
6027;SDS011;3042;43.194;27.646;2023-11-21T01:41:33;32.37;;;29.30;;
6027;SDS011;3042;43.194;27.646;2023-11-21T01:44:00;35.17;;;31.47;;
6027;SDS011;3042;43.194;27.646;2023-11-21T01:46:27;32.97;;;29.47;;
6027;SDS011;3042;43.194;27.646;2023-11-21T01:48:57;32.43;;;29.30;;
6027;SDS011;3042;43.194;27.646;2023-11-21T01:51:24;32.93;;;29.43;;
6027;SDS011;3042;43.194;27.646;2023-11-21T01:53:52;35.75;;;31.92;;
6027;SDS011;3042;43.194;27.646;2023-11-21T01:56:19;32.37;;;29.03;;
6027;SDS011;3042;43.194;27.646;2023-11-21T01:58:47;32.40;;;29.20;;
6027;SDS011;3042;43.194;27.646;2023-11-21T02:01:14;30.67;;;27.77;;
6027;SDS011;3042;43.194;27.646;2023-11-21T02:03:43;31.50;;;28.10;;
6027;SDS011;3042;43.194;27.646;2023-11-21T02:06:12;25.07;;;22.70;;
6027;SDS011;3042;43.194;27.646;2023-11-21T02:08:39;24.93;;;22.77;;
6027;SDS011;3042;43.194;27.646;2023-11-21T02:11:07;23.00;;;20.57;;
6027;SDS011;3042;43.194;27.646;2023-11-21T02:13:38;24.17;;;21.97;;
6027;SDS011;3042;43.194;27.646;2023-11-21T02:16:08;24.20;;;22.30;;
6027;SDS011;3042;43.194;27.646;2023-11-21T02:18:37;36.10;;;24.10;;
6027;SDS011;3042;43.194;27.646;2023-11-21T02:21:05;28.83;;;26.10;;
6027;SDS011;3042;43.194;27.646;2023-11-21T02:23:34;26.67;;;24.17;;
6027;SDS011;3042;43.194;27.646;2023-11-21T02:26:01;27.07;;;23.97;;
6027;SDS011;3042;43.194;27.646;2023-11-21T02:28:29;25.43;;;23.33;;
6027;SDS011;3042;43.194;27.646;2023-11-21T02:30:58;24.63;;;22.60;;
6027;SDS011;3042;43.194;27.646;2023-11-21T02:33:25;24.10;;;22.30;;
6027;SDS011;3042;43.194;27.646;2023-11-21T02:35:52;23.60;;;22.00;;
6027;SDS011;3042;43.194;27.646;2023-11-21T02:38:20;27.27;;;25.13;;
6027;SDS011;3042;43.194;27.646;2023-11-21T02:40:49;26.87;;;24.00;;
6027;SDS011;3042;43.194;27.646;2023-11-21T02:43:16;23.33;;;21.63;;
6027;SDS011;3042;43.194;27.646;2023-11-21T02:45:43;22.27;;;20.73;;
6027;SDS011;3042;43.194;27.646;2023-11-21T02:48:11;21.70;;;20.30;;
6027;SDS011;3042;43.194;27.646;2023-11-21T02:50:38;24.20;;;22.27;;
6027;SDS011;3042;43.194;27.646;2023-11-21T02:53:05;26.83;;;21.23;;
6027;SDS011;3042;43.194;27.646;2023-11-21T02:55:32;27.03;;;21.77;;
6027;SDS011;3042;43.194;27.646;2023-11-21T02:58:02;36.37;;;22.53;;
6027;SDS011;3042;43.194;27.646;2023-11-21T03:00:30;19.77;;;18.10;;
6027;SDS011;3042;43.194;27.646;2023-11-21T03:02:57;22.60;;;20.63;;
6027;SDS011;3042;43.194;27.646;2023-11-21T03:05:24;24.03;;;21.60;;
6027;SDS011;3042;43.194;27.646;2023-11-21T03:07:51;23.30;;;21.17;;
6027;SDS011;3042;43.194;27.646;2023-11-21T03:10:21;32.37;;;22.00;;
6027;SDS011;3042;43.194;27.646;2023-11-21T03:12:48;21.27;;;19.70;;
6027;SDS011;3042;43.194;27.646;2023-11-21T03:15:17;23.60;;;21.60;;
6027;SDS011;3042;43.194;27.646;2023-11-21T03:17:44;23.43;;;21.23;;
6027;SDS011;3042;43.194;27.646;2023-11-21T03:20:11;21.80;;;20.00;;
6027;SDS011;3042;43.194;27.646;2023-11-21T03:22:39;24.73;;;22.53;;
6027;SDS011;3042;43.194;27.646;2023-11-21T03:25:06;25.73;;;23.43;;
6027;SDS011;3042;43.194;27.646;2023-11-21T03:27:36;26.53;;;24.07;;
6027;SDS011;3042;43.194;27.646;2023-11-21T03:30:04;27.37;;;24.87;;
6027;SDS011;3042;43.194;27.646;2023-11-21T03:32:35;27.60;;;25.20;;
6027;SDS011;3042;43.194;27.646;2023-11-21T03:35:03;32.03;;;27.80;;
6027;SDS011;3042;43.194;27.646;2023-11-21T03:37:48;28.10;;;25.70;;
6027;SDS011;3042;43.194;27.646;2023-11-21T03:40:31;31.83;;;23.67;;
6027;SDS011;3042;43.194;27.646;2023-11-21T03:42:58;60.17;;;27.10;;
6027;SDS011;3042;43.194;27.646;2023-11-21T03:45:25;30.90;;;25.40;;
6027;SDS011;3042;43.194;27.646;2023-11-21T03:47:54;30.50;;;27.37;;
6027;SDS011;3042;43.194;27.646;2023-11-21T03:50:21;31.77;;;27.60;;
6027;SDS011;3042;43.194;27.646;2023-11-21T03:52:48;32.87;;;28.53;;
6027;SDS011;3042;43.194;27.646;2023-11-21T03:55:15;39.15;;;30.88;;
6027;SDS011;3042;43.194;27.646;2023-11-21T03:57:42;41.33;;;31.40;;
6027;SDS011;3042;43.194;27.646;2023-11-21T04:00:10;33.33;;;29.83;;
6027;SDS011;3042;43.194;27.646;2023-11-21T04:02:38;33.80;;;29.87;;
6027;SDS011;3042;43.194;27.646;2023-11-21T04:05:07;31.93;;;28.83;;
6027;SDS011;3042;43.194;27.646;2023-11-21T04:07:35;32.60;;;29.30;;
6027;SDS011;3042;43.194;27.646;2023-11-21T04:10:03;31.07;;;28.07;;
6027;SDS011;3042;43.194;27.646;2023-11-21T04:12:32;34.07;;;29.20;;
6027;SDS011;3042;43.194;27.646;2023-11-21T04:14:59;32.90;;;29.50;;
6027;SDS011;3042;43.194;27.646;2023-11-21T04:17:26;30.30;;;27.10;;
6027;SDS011;3042;43.194;27.646;2023-11-21T04:19:54;32.60;;;29.20;;
6027;SDS011;3042;43.194;27.646;2023-11-21T04:22:23;43.43;;;30.60;;
6027;SDS011;3042;43.194;27.646;2023-11-21T04:24:50;43.47;;;32.97;;
6027;SDS011;3042;43.194;27.646;2023-11-21T04:27:17;34.77;;;31.10;;
6027;SDS011;3042;43.194;27.646;2023-11-21T04:29:44;32.67;;;29.37;;
6027;SDS011;3042;43.194;27.646;2023-11-21T04:32:11;34.40;;;28.20;;
6027;SDS011;3042;43.194;27.646;2023-11-21T04:34:39;41.03;;;29.50;;
6027;SDS011;3042;43.194;27.646;2023-11-21T04:37:06;31.37;;;28.37;;
6027;SDS011;3042;43.194;27.646;2023-11-21T04:39:36;33.53;;;29.93;;
6027;SDS011;3042;43.194;27.646;2023-11-21T04:42:03;50.63;;;31.70;;
6027;SDS011;3042;43.194;27.646;2023-11-21T04:44:30;35.17;;;31.57;;
6027;SDS011;3042;43.194;27.646;2023-11-21T04:46:57;35.40;;;31.43;;
6027;SDS011;3042;43.194;27.646;2023-11-21T04:49:24;56.73;;;32.10;;
6027;SDS011;3042;43.194;27.646;2023-11-21T04:51:51;43.57;;;34.17;;
6027;SDS011;3042;43.194;27.646;2023-11-21T04:54:18;38.53;;;30.90;;
6027;SDS011;3042;43.194;27.646;2023-11-21T04:56:48;52.10;;;37.80;;
6027;SDS011;3042;43.194;27.646;2023-11-21T04:59:15;40.77;;;35.77;;
6027;SDS011;3042;43.194;27.646;2023-11-21T05:01:42;42.93;;;34.87;;
6027;SDS011;3042;43.194;27.646;2023-11-21T05:04:09;42.70;;;35.83;;
6027;SDS011;3042;43.194;27.646;2023-11-21T05:06:36;63.87;;;38.27;;
6027;SDS011;3042;43.194;27.646;2023-11-21T05:09:03;46.13;;;34.90;;
6027;SDS011;3042;43.194;27.646;2023-11-21T05:11:30;43.03;;;31.43;;
6027;SDS011;3042;43.194;27.646;2023-11-21T05:13:59;42.87;;;32.20;;
6027;SDS011;3042;43.194;27.646;2023-11-21T05:16:26;58.53;;;36.88;;
6027;SDS011;3042;43.194;27.646;2023-11-21T05:18:54;46.53;;;35.60;;
6027;SDS011;3042;43.194;27.646;2023-11-21T05:21:25;43.80;;;33.60;;
6027;SDS011;3042;43.194;27.646;2023-11-21T05:23:52;39.20;;;35.00;;
6027;SDS011;3042;43.194;27.646;2023-11-21T05:26:19;43.97;;;35.72;;
6027;SDS011;3042;43.194;27.646;2023-11-21T05:28:47;48.47;;;36.00;;
6027;SDS011;3042;43.194;27.646;2023-11-21T05:31:15;57.50;;;35.67;;
6027;SDS011;3042;43.194;27.646;2023-11-21T05:33:42;36.60;;;32.00;;
6027;SDS011;3042;43.194;27.646;2023-11-21T05:36:10;41.83;;;33.50;;
6027;SDS011;3042;43.194;27.646;2023-11-21T05:38:37;48.43;;;34.23;;
6027;SDS011;3042;43.194;27.646;2023-11-21T05:41:04;45.13;;;34.60;;
6027;SDS011;3042;43.194;27.646;2023-11-21T05:43:31;48.87;;;33.40;;
6027;SDS011;3042;43.194;27.646;2023-11-21T05:46:00;37.17;;;29.77;;
6027;SDS011;3042;43.194;27.646;2023-11-21T05:48:29;31.93;;;28.30;;
6027;SDS011;3042;43.194;27.646;2023-11-21T05:50:56;35.88;;;31.65;;
6027;SDS011;3042;43.194;27.646;2023-11-21T05:53:24;26.63;;;23.87;;
6027;SDS011;3042;43.194;27.646;2023-11-21T05:55:51;27.43;;;24.77;;
6027;SDS011;3042;43.194;27.646;2023-11-21T05:58:18;27.10;;;24.70;;
6027;SDS011;3042;43.194;27.646;2023-11-21T06:00:45;31.70;;;28.37;;
6027;SDS011;3042;43.194;27.646;2023-11-21T06:03:12;26.90;;;24.50;;
6027;SDS011;3042;43.194;27.646;2023-11-21T06:05:41;26.73;;;24.50;;
6027;SDS011;3042;43.194;27.646;2023-11-21T06:08:08;25.77;;;23.10;;
6027;SDS011;3042;43.194;27.646;2023-11-21T06:10:35;25.43;;;22.83;;
6027;SDS011;3042;43.194;27.646;2023-11-21T06:13:03;23.10;;;21.50;;
6027;SDS011;3042;43.194;27.646;2023-11-21T06:15:30;25.10;;;23.23;;
6027;SDS011;3042;43.194;27.646;2023-11-21T06:17:57;45.80;;;29.30;;
6027;SDS011;3042;43.194;27.646;2023-11-21T06:20:25;52.77;;;36.87;;
6027;SDS011;3042;43.194;27.646;2023-11-21T06:22:54;38.60;;;31.60;;
6027;SDS011;3042;43.194;27.646;2023-11-21T06:25:21;40.37;;;30.80;;
6027;SDS011;3042;43.194;27.646;2023-11-21T06:27:48;32.87;;;29.40;;
6027;SDS011;3042;43.194;27.646;2023-11-21T06:30:16;41.37;;;28.90;;
6027;SDS011;3042;43.194;27.646;2023-11-21T06:32:45;31.53;;;25.87;;
6027;SDS011;3042;43.194;27.646;2023-11-21T06:35:12;36.50;;;25.10;;
6027;SDS011;3042;43.194;27.646;2023-11-21T06:37:41;40.57;;;28.53;;
6027;SDS011;3042;43.194;27.646;2023-11-21T06:40:14;33.67;;;27.40;;
6027;SDS011;3042;43.194;27.646;2023-11-21T06:42:41;33.60;;;24.87;;
6027;SDS011;3042;43.194;27.646;2023-11-21T06:45:09;36.50;;;25.70;;
6027;SDS011;3042;43.194;27.646;2023-11-21T06:47:37;32.13;;;26.57;;
6027;SDS011;3042;43.194;27.646;2023-11-21T06:50:05;32.60;;;25.60;;
6027;SDS011;3042;43.194;27.646;2023-11-21T06:52:32;38.93;;;28.47;;
6027;SDS011;3042;43.194;27.646;2023-11-21T06:54:59;44.97;;;40.60;;
6027;SDS011;3042;43.194;27.646;2023-11-21T06:57:29;32.63;;;25.23;;
6027;SDS011;3042;43.194;27.646;2023-11-21T06:59:58;27.80;;;24.75;;
6027;SDS011;3042;43.194;27.646;2023-11-21T07:02:25;24.87;;;22.40;;
6027;SDS011;3042;43.194;27.646;2023-11-21T07:04:53;23.03;;;20.90;;
6027;SDS011;3042;43.194;27.646;2023-11-21T07:07:20;35.50;;;21.27;;
6027;SDS011;3042;43.194;27.646;2023-11-21T07:09:47;24.17;;;21.90;;
6027;SDS011;3042;43.194;27.646;2023-11-21T07:12:14;24.20;;;21.67;;
6027;SDS011;3042;43.194;27.646;2023-11-21T07:14:43;24.27;;;22.07;;
6027;SDS011;3042;43.194;27.646;2023-11-21T07:17:10;25.03;;;22.23;;
6027;SDS011;3042;43.194;27.646;2023-11-21T07:19:38;26.63;;;24.10;;
6027;SDS011;3042;43.194;27.646;2023-11-21T07:22:06;24.83;;;22.63;;
6027;SDS011;3042;43.194;27.646;2023-11-21T07:24:34;22.30;;;20.30;;
6027;SDS011;3042;43.194;27.646;2023-11-21T07:27:03;30.97;;;20.13;;
6027;SDS011;3042;43.194;27.646;2023-11-21T07:29:30;19.90;;;18.15;;
6027;SDS011;3042;43.194;27.646;2023-11-21T07:31:59;20.03;;;18.20;;
6027;SDS011;3042;43.194;27.646;2023-11-21T07:34:26;25.50;;;22.77;;
6027;SDS011;3042;43.194;27.646;2023-11-21T07:36:53;22.50;;;20.70;;
6027;SDS011;3042;43.194;27.646;2023-11-21T07:39:21;31.90;;;23.07;;
6027;SDS011;3042;43.194;27.646;2023-11-21T07:41:48;33.87;;;24.13;;
6027;SDS011;3042;43.194;27.646;2023-11-21T07:44:15;22.50;;;20.53;;
6027;SDS011;3042;43.194;27.646;2023-11-21T07:46:43;24.80;;;21.27;;
6027;SDS011;3042;43.194;27.646;2023-11-21T07:49:12;23.17;;;21.07;;
6027;SDS011;3042;43.194;27.646;2023-11-21T07:51:41;22.37;;;20.13;;
6027;SDS011;3042;43.194;27.646;2023-11-21T07:54:08;23.83;;;21.60;;
6027;SDS011;3042;43.194;27.646;2023-11-21T07:56:36;25.10;;;21.23;;
6027;SDS011;3042;43.194;27.646;2023-11-21T07:59:03;23.70;;;21.60;;
6027;SDS011;3042;43.194;27.646;2023-11-21T08:01:30;20.42;;;19.02;;
6027;SDS011;3042;43.194;27.646;2023-11-21T08:03:58;19.93;;;18.17;;
6027;SDS011;3042;43.194;27.646;2023-11-21T08:06:30;19.30;;;18.00;;
6027;SDS011;3042;43.194;27.646;2023-11-21T08:08:58;22.07;;;20.07;;
6027;SDS011;3042;43.194;27.646;2023-11-21T08:11:25;20.93;;;19.17;;
6027;SDS011;3042;43.194;27.646;2023-11-21T08:13:54;22.17;;;20.47;;
6027;SDS011;3042;43.194;27.646;2023-11-21T08:16:21;25.70;;;23.00;;
6027;SDS011;3042;43.194;27.646;2023-11-21T08:18:49;22.23;;;18.80;;
6027;SDS011;3042;43.194;27.646;2023-11-21T08:21:16;23.53;;;21.30;;
6027;SDS011;3042;43.194;27.646;2023-11-21T08:23:45;24.33;;;21.57;;
6027;SDS011;3042;43.194;27.646;2023-11-21T08:26:18;22.40;;;20.00;;
6027;SDS011;3042;43.194;27.646;2023-11-21T08:28:45;24.40;;;20.90;;
6027;SDS011;3042;43.194;27.646;2023-11-21T08:31:13;22.30;;;20.30;;
6027;SDS011;3042;43.194;27.646;2023-11-21T08:33:41;22.33;;;20.37;;
6027;SDS011;3042;43.194;27.646;2023-11-21T08:36:09;28.40;;;22.30;;
6027;SDS011;3042;43.194;27.646;2023-11-21T08:38:37;21.40;;;19.77;;
6027;SDS011;3042;43.194;27.646;2023-11-21T08:41:06;22.30;;;20.20;;
6027;SDS011;3042;43.194;27.646;2023-11-21T08:43:34;21.80;;;19.93;;
6027;SDS011;3042;43.194;27.646;2023-11-21T08:46:05;21.97;;;20.40;;
6027;SDS011;3042;43.194;27.646;2023-11-21T08:48:34;21.67;;;19.90;;
6027;SDS011;3042;43.194;27.646;2023-11-21T08:51:02;21.40;;;19.50;;
6027;SDS011;3042;43.194;27.646;2023-11-21T08:53:30;38.20;;;22.60;;
6027;SDS011;3042;43.194;27.646;2023-11-21T08:55:58;23.83;;;19.10;;
6027;SDS011;3042;43.194;27.646;2023-11-21T08:58:26;22.53;;;20.60;;
6027;SDS011;3042;43.194;27.646;2023-11-21T09:00:53;19.47;;;17.80;;
6027;SDS011;3042;43.194;27.646;2023-11-21T09:03:20;24.67;;;19.57;;
6027;SDS011;3042;43.194;27.646;2023-11-21T09:05:47;20.20;;;18.13;;
6027;SDS011;3042;43.194;27.646;2023-11-21T09:08:15;26.60;;;19.33;;
6027;SDS011;3042;43.194;27.646;2023-11-21T09:10:42;21.57;;;19.10;;
6027;SDS011;3042;43.194;27.646;2023-11-21T09:13:12;23.93;;;19.30;;
6027;SDS011;3042;43.194;27.646;2023-11-21T09:15:43;19.70;;;18.10;;
6027;SDS011;3042;43.194;27.646;2023-11-21T09:18:12;32.70;;;18.43;;
6027;SDS011;3042;43.194;27.646;2023-11-21T09:20:40;33.80;;;19.73;;
6027;SDS011;3042;43.194;27.646;2023-11-21T09:23:08;23.57;;;21.07;;
6027;SDS011;3042;43.194;27.646;2023-11-21T09:25:35;21.53;;;19.43;;
6027;SDS011;3042;43.194;27.646;2023-11-21T09:28:02;19.40;;;17.93;;
6027;SDS011;3042;43.194;27.646;2023-11-21T09:30:33;33.30;;;20.60;;
6027;SDS011;3042;43.194;27.646;2023-11-21T09:33:01;28.00;;;20.67;;
6027;SDS011;3042;43.194;27.646;2023-11-21T09:35:30;20.80;;;19.33;;
6027;SDS011;3042;43.194;27.646;2023-11-21T09:37:57;25.80;;;19.97;;
6027;SDS011;3042;43.194;27.646;2023-11-21T09:40:26;90.00;;;34.00;;
6027;SDS011;3042;43.194;27.646;2023-11-21T09:42:56;24.00;;;20.33;;
6027;SDS011;3042;43.194;27.646;2023-11-21T09:45:27;23.23;;;18.70;;
6027;SDS011;3042;43.194;27.646;2023-11-21T09:47:56;30.87;;;19.00;;
6027;SDS011;3042;43.194;27.646;2023-11-21T09:50:24;21.00;;;17.97;;
6027;SDS011;3042;43.194;27.646;2023-11-21T09:52:54;41.40;;;20.50;;
6027;SDS011;3042;43.194;27.646;2023-11-21T09:55:26;27.63;;;20.37;;
6027;SDS011;3042;43.194;27.646;2023-11-21T09:57:55;20.10;;;18.10;;
6027;SDS011;3042;43.194;27.646;2023-11-21T10:00:23;19.00;;;17.50;;
6027;SDS011;3042;43.194;27.646;2023-11-21T10:02:52;21.93;;;18.13;;
6027;SDS011;3042;43.194;27.646;2023-11-21T10:05:19;19.13;;;17.10;;
6027;SDS011;3042;43.194;27.646;2023-11-21T10:07:50;29.17;;;26.87;;
6027;SDS011;3042;43.194;27.646;2023-11-21T10:10:18;18.30;;;17.20;;
6027;SDS011;3042;43.194;27.646;2023-11-21T10:12:48;20.20;;;18.70;;
6027;SDS011;3042;43.194;27.646;2023-11-21T10:15:18;17.60;;;16.60;;
6027;SDS011;3042;43.194;27.646;2023-11-21T10:17:48;18.60;;;17.40;;
6027;SDS011;3042;43.194;27.646;2023-11-21T10:20:15;19.20;;;17.80;;
6027;SDS011;3042;43.194;27.646;2023-11-21T10:22:42;20.27;;;18.60;;
6027;SDS011;3042;43.194;27.646;2023-11-21T10:25:11;18.33;;;17.33;;
6027;SDS011;3042;43.194;27.646;2023-11-21T10:27:40;20.00;;;18.60;;
6027;SDS011;3042;43.194;27.646;2023-11-21T10:30:08;18.20;;;16.90;;
6027;SDS011;3042;43.194;27.646;2023-11-21T10:32:37;18.67;;;17.17;;
6027;SDS011;3042;43.194;27.646;2023-11-21T10:35:06;19.70;;;18.40;;
6027;SDS011;3042;43.194;27.646;2023-11-21T10:37:35;20.00;;;18.37;;
6027;SDS011;3042;43.194;27.646;2023-11-21T10:40:05;21.40;;;19.53;;
6027;SDS011;3042;43.194;27.646;2023-11-21T10:42:38;24.97;;;22.33;;
6027;SDS011;3042;43.194;27.646;2023-11-21T10:45:06;23.30;;;21.60;;
6027;SDS011;3042;43.194;27.646;2023-11-21T10:47:37;20.20;;;18.80;;
6027;SDS011;3042;43.194;27.646;2023-11-21T10:50:05;19.83;;;18.13;;
6027;SDS011;3042;43.194;27.646;2023-11-21T10:52:36;18.80;;;17.50;;
6027;SDS011;3042;43.194;27.646;2023-11-21T10:55:12;25.33;;;23.03;;
6027;SDS011;3042;43.194;27.646;2023-11-21T10:57:46;28.20;;;23.00;;
6027;SDS011;3042;43.194;27.646;2023-11-21T11:00:15;24.90;;;23.10;;
6027;SDS011;3042;43.194;27.646;2023-11-21T11:02:45;19.70;;;18.27;;
6027;SDS011;3042;43.194;27.646;2023-11-21T11:05:15;18.53;;;17.13;;
6027;SDS011;3042;43.194;27.646;2023-11-21T11:07:45;19.23;;;17.73;;
6027;SDS011;3042;43.194;27.646;2023-11-21T11:10:19;21.90;;;19.63;;
6027;SDS011;3042;43.194;27.646;2023-11-21T11:12:49;22.10;;;20.03;;
6027;SDS011;3042;43.194;27.646;2023-11-21T11:15:17;21.40;;;18.63;;
6027;SDS011;3042;43.194;27.646;2023-11-21T11:17:46;21.40;;;18.03;;
6027;SDS011;3042;43.194;27.646;2023-11-21T11:20:14;21.67;;;19.40;;
6027;SDS011;3042;43.194;27.646;2023-11-21T11:22:43;21.48;;;19.70;;
6027;SDS011;3042;43.194;27.646;2023-11-21T11:25:25;26.90;;;23.87;;
6027;SDS011;3042;43.194;27.646;2023-11-21T11:28:04;25.07;;;21.80;;
6027;SDS011;3042;43.194;27.646;2023-11-21T11:30:41;23.33;;;18.80;;
6027;SDS011;3042;43.194;27.646;2023-11-21T11:33:21;26.07;;;21.10;;
6027;SDS011;3042;43.194;27.646;2023-11-21T11:36:00;22.57;;;20.17;;
6027;SDS011;3042;43.194;27.646;2023-11-21T11:38:33;21.27;;;19.30;;
6027;SDS011;3042;43.194;27.646;2023-11-21T11:41:01;19.60;;;17.60;;
6027;SDS011;3042;43.194;27.646;2023-11-21T11:43:30;22.53;;;20.33;;
6027;SDS011;3042;43.194;27.646;2023-11-21T11:46:05;20.57;;;18.60;;
6027;SDS011;3042;43.194;27.646;2023-11-21T11:48:34;19.80;;;18.20;;
6027;SDS011;3042;43.194;27.646;2023-11-21T11:51:04;31.60;;;18.63;;
6027;SDS011;3042;43.194;27.646;2023-11-21T11:53:38;24.37;;;22.07;;
6027;SDS011;3042;43.194;27.646;2023-11-21T11:59:04;20.73;;;18.90;;
6027;SDS011;3042;43.194;27.646;2023-11-21T12:01:34;21.80;;;19.70;;
6027;SDS011;3042;43.194;27.646;2023-11-21T12:06:56;23.13;;;21.15;;
6027;SDS011;3042;43.194;27.646;2023-11-21T12:09:28;31.40;;;28.20;;
6027;SDS011;3042;43.194;27.646;2023-11-21T12:11:56;25.37;;;22.73;;
6027;SDS011;3042;43.194;27.646;2023-11-21T12:14:25;55.13;;;24.43;;
6027;SDS011;3042;43.194;27.646;2023-11-21T12:16:52;32.70;;;22.33;;
6027;SDS011;3042;43.194;27.646;2023-11-21T12:19:20;23.50;;;21.00;;
6027;SDS011;3042;43.194;27.646;2023-11-21T12:21:48;25.73;;;21.10;;
6027;SDS011;3042;43.194;27.646;2023-11-21T12:24:16;30.70;;;22.53;;
6027;SDS011;3042;43.194;27.646;2023-11-21T12:26:43;25.23;;;21.10;;
6027;SDS011;3042;43.194;27.646;2023-11-21T12:29:10;20.60;;;19.00;;
6027;SDS011;3042;43.194;27.646;2023-11-21T12:31:39;20.90;;;19.00;;
6027;SDS011;3042;43.194;27.646;2023-11-21T12:34:07;57.70;;;21.83;;
6027;SDS011;3042;43.194;27.646;2023-11-21T12:36:37;48.47;;;24.73;;
6027;SDS011;3042;43.194;27.646;2023-11-21T12:39:05;34.83;;;20.20;;
6027;SDS011;3042;43.194;27.646;2023-11-21T12:41:34;32.27;;;21.40;;
6027;SDS011;3042;43.194;27.646;2023-11-21T12:44:01;28.30;;;21.80;;
6027;SDS011;3042;43.194;27.646;2023-11-21T12:46:28;25.20;;;22.87;;
6027;SDS011;3042;43.194;27.646;2023-11-21T12:48:59;25.97;;;21.60;;
6027;SDS011;3042;43.194;27.646;2023-11-21T12:51:27;21.53;;;19.43;;
6027;SDS011;3042;43.194;27.646;2023-11-21T12:53:55;27.33;;;18.90;;
6027;SDS011;3042;43.194;27.646;2023-11-21T12:56:23;22.00;;;19.27;;
6027;SDS011;3042;43.194;27.646;2023-11-21T12:58:53;20.17;;;18.60;;
6027;SDS011;3042;43.194;27.646;2023-11-21T13:01:25;19.10;;;17.40;;
6027;SDS011;3042;43.194;27.646;2023-11-21T13:03:56;19.40;;;17.73;;
6027;SDS011;3042;43.194;27.646;2023-11-21T13:06:25;21.93;;;17.73;;
6027;SDS011;3042;43.194;27.646;2023-11-21T13:08:52;18.90;;;17.47;;
6027;SDS011;3042;43.194;27.646;2023-11-21T13:11:22;36.07;;;21.73;;
6027;SDS011;3042;43.194;27.646;2023-11-21T13:13:51;19.67;;;18.13;;
6027;SDS011;3042;43.194;27.646;2023-11-21T13:16:19;48.83;;;19.23;;
6027;SDS011;3042;43.194;27.646;2023-11-21T13:18:47;24.23;;;18.17;;
6027;SDS011;3042;43.194;27.646;2023-11-21T13:21:14;27.73;;;18.33;;
6027;SDS011;3042;43.194;27.646;2023-11-21T13:23:43;20.73;;;17.07;;
6027;SDS011;3042;43.194;27.646;2023-11-21T13:26:13;17.97;;;16.20;;
6027;SDS011;3042;43.194;27.646;2023-11-21T13:28:41;25.97;;;16.57;;
6027;SDS011;3042;43.194;27.646;2023-11-21T13:31:11;25.90;;;19.20;;
6027;SDS011;3042;43.194;27.646;2023-11-21T13:33:46;22.67;;;20.50;;
6027;SDS011;3042;43.194;27.646;2023-11-21T13:36:20;18.07;;;16.20;;
6027;SDS011;3042;43.194;27.646;2023-11-21T13:38:50;20.23;;;16.57;;
6027;SDS011;3042;43.194;27.646;2023-11-21T13:41:18;19.10;;;16.87;;
6027;SDS011;3042;43.194;27.646;2023-11-21T13:43:53;24.93;;;19.93;;
6027;SDS011;3042;43.194;27.646;2023-11-21T13:46:28;23.17;;;17.00;;
6027;SDS011;3042;43.194;27.646;2023-11-21T13:49:02;16.73;;;15.60;;
6027;SDS011;3042;43.194;27.646;2023-11-21T13:51:32;16.50;;;15.17;;
6027;SDS011;3042;43.194;27.646;2023-11-21T13:54:07;37.20;;;18.50;;
6027;SDS011;3042;43.194;27.646;2023-11-21T13:56:34;23.50;;;15.90;;
6027;SDS011;3042;43.194;27.646;2023-11-21T13:59:02;30.10;;;17.87;;
6027;SDS011;3042;43.194;27.646;2023-11-21T14:01:38;56.17;;;15.70;;
6027;SDS011;3042;43.194;27.646;2023-11-21T14:04:19;29.40;;;16.07;;
6027;SDS011;3042;43.194;27.646;2023-11-21T14:07:00;28.33;;;18.50;;
6027;SDS011;3042;43.194;27.646;2023-11-21T14:09:45;56.63;;;17.33;;
6027;SDS011;3042;43.194;27.646;2023-11-21T14:12:15;20.00;;;16.03;;
6027;SDS011;3042;43.194;27.646;2023-11-21T14:14:42;19.35;;;16.90;;
6027;SDS011;3042;43.194;27.646;2023-11-21T14:17:10;20.47;;;16.00;;
6027;SDS011;3042;43.194;27.646;2023-11-21T14:19:37;60.83;;;17.00;;
6027;SDS011;3042;43.194;27.646;2023-11-21T14:22:08;58.03;;;19.03;;
6027;SDS011;3042;43.194;27.646;2023-11-21T14:24:36;45.63;;;19.10;;
6027;SDS011;3042;43.194;27.646;2023-11-21T14:27:10;21.30;;;17.70;;
6027;SDS011;3042;43.194;27.646;2023-11-21T14:29:37;17.70;;;15.90;;
6027;SDS011;3042;43.194;27.646;2023-11-21T14:32:08;29.63;;;26.97;;
6027;SDS011;3042;43.194;27.646;2023-11-21T14:34:35;32.43;;;18.40;;
6027;SDS011;3042;43.194;27.646;2023-11-21T14:37:03;37.93;;;17.47;;
6027;SDS011;3042;43.194;27.646;2023-11-21T14:39:30;17.97;;;16.17;;
6027;SDS011;3042;43.194;27.646;2023-11-21T14:42:03;17.63;;;16.47;;
6027;SDS011;3042;43.194;27.646;2023-11-21T14:44:34;19.73;;;17.83;;
6027;SDS011;3042;43.194;27.646;2023-11-21T14:47:06;23.67;;;17.73;;